sensor_id;sensor_type;location;lat;lon;timestamp;temperature;humidity
5041;DHT22;2539;52.568;13.364;2023-02-15T00:01:40;3.80;99.90
5041;DHT22;2539;52.568;13.364;2023-02-15T00:04:07;3.60;99.90
5041;DHT22;2539;52.568;13.364;2023-02-15T00:06:34;3.60;99.90
5041;DHT22;2539;52.568;13.364;2023-02-15T00:09:00;3.60;99.90
5041;DHT22;2539;52.568;13.364;2023-02-15T00:11:27;3.60;99.90
5041;DHT22;2539;52.568;13.364;2023-02-15T00:14:09;3.60;99.90
5041;DHT22;2539;52.568;13.364;2023-02-15T00:16:36;3.60;99.90
5041;DHT22;2539;52.568;13.364;2023-02-15T00:19:03;3.50;99.90
5041;DHT22;2539;52.568;13.364;2023-02-15T00:21:31;3.50;99.90
5041;DHT22;2539;52.568;13.364;2023-02-15T00:24:00;3.50;99.90
5041;DHT22;2539;52.568;13.364;2023-02-15T00:26:27;3.40;99.90
5041;DHT22;2539;52.568;13.364;2023-02-15T00:28:53;3.40;99.90
5041;DHT22;2539;52.568;13.364;2023-02-15T00:31:20;3.30;99.90
5041;DHT22;2539;52.568;13.364;2023-02-15T00:33:46;3.40;99.90
5041;DHT22;2539;52.568;13.364;2023-02-15T00:36:12;3.40;99.90
5041;DHT22;2539;52.568;13.364;2023-02-15T00:38:38;3.30;99.90
5041;DHT22;2539;52.568;13.364;2023-02-15T00:41:06;3.30;99.90
5041;DHT22;2539;52.568;13.364;2023-02-15T00:43:33;3.30;99.90
5041;DHT22;2539;52.568;13.364;2023-02-15T00:46:00;3.20;99.90
5041;DHT22;2539;52.568;13.364;2023-02-15T00:48:26;3.20;99.90
5041;DHT22;2539;52.568;13.364;2023-02-15T00:50:57;3.10;99.90
5041;DHT22;2539;52.568;13.364;2023-02-15T00:53:23;3.10;99.90
5041;DHT22;2539;52.568;13.364;2023-02-15T00:55:50;3.10;99.90
5041;DHT22;2539;52.568;13.364;2023-02-15T00:58:16;3.10;99.90
5041;DHT22;2539;52.568;13.364;2023-02-15T01:00:45;3.10;99.90
5041;DHT22;2539;52.568;13.364;2023-02-15T01:03:14;3.10;99.90
5041;DHT22;2539;52.568;13.364;2023-02-15T01:05:42;3.00;99.90
5041;DHT22;2539;52.568;13.364;2023-02-15T01:08:09;4.50;99.90
5041;DHT22;2539;52.568;13.364;2023-02-15T01:10:35;3.10;99.90
5041;DHT22;2539;52.568;13.364;2023-02-15T01:13:02;3.00;99.90
5041;DHT22;2539;52.568;13.364;2023-02-15T01:15:30;3.00;99.90
5041;DHT22;2539;52.568;13.364;2023-02-15T01:17:56;3.00;99.90
5041;DHT22;2539;52.568;13.364;2023-02-15T01:20:24;3.00;99.90
5041;DHT22;2539;52.568;13.364;2023-02-15T01:22:57;2.90;99.90
5041;DHT22;2539;52.568;13.364;2023-02-15T01:25:24;2.90;99.90
5041;DHT22;2539;52.568;13.364;2023-02-15T01:27:50;2.90;99.90
5041;DHT22;2539;52.568;13.364;2023-02-15T01:30:17;2.90;99.90
5041;DHT22;2539;52.568;13.364;2023-02-15T01:32:43;2.80;99.90
5041;DHT22;2539;52.568;13.364;2023-02-15T01:35:10;2.80;99.90
5041;DHT22;2539;52.568;13.364;2023-02-15T01:37:36;2.80;99.90
5041;DHT22;2539;52.568;13.364;2023-02-15T01:40:05;2.80;99.90
5041;DHT22;2539;52.568;13.364;2023-02-15T01:42:32;2.80;99.90
5041;DHT22;2539;52.568;13.364;2023-02-15T01:45:03;2.80;99.90
5041;DHT22;2539;52.568;13.364;2023-02-15T01:47:38;2.70;99.90
5041;DHT22;2539;52.568;13.364;2023-02-15T01:50:33;3.70;99.90
5041;DHT22;2539;52.568;13.364;2023-02-15T01:53:16;2.70;99.90
5041;DHT22;2539;52.568;13.364;2023-02-15T01:55:48;2.70;99.90
5041;DHT22;2539;52.568;13.364;2023-02-15T01:58:15;2.70;99.90
5041;DHT22;2539;52.568;13.364;2023-02-15T02:00:42;2.70;99.90
5041;DHT22;2539;52.568;13.364;2023-02-15T02:03:09;2.70;99.90
5041;DHT22;2539;52.568;13.364;2023-02-15T02:05:37;2.50;99.90
5041;DHT22;2539;52.568;13.364;2023-02-15T02:08:04;2.50;99.90
5041;DHT22;2539;52.568;13.364;2023-02-15T02:10:30;4.00;99.90
5041;DHT22;2539;52.568;13.364;2023-02-15T02:12:59;2.40;99.90
5041;DHT22;2539;52.568;13.364;2023-02-15T02:16:15;2.40;99.90
5041;DHT22;2539;52.568;13.364;2023-02-15T02:18:45;2.30;99.90
5041;DHT22;2539;52.568;13.364;2023-02-15T02:21:45;2.30;99.90
5041;DHT22;2539;52.568;13.364;2023-02-15T02:27:12;2.20;99.90
5041;DHT22;2539;52.568;13.364;2023-02-15T02:33:37;2.20;99.90
5041;DHT22;2539;52.568;13.364;2023-02-15T02:36:31;2.20;99.90
5041;DHT22;2539;52.568;13.364;2023-02-15T02:42:18;2.20;99.90
5041;DHT22;2539;52.568;13.364;2023-02-15T02:45:20;2.20;99.90
5041;DHT22;2539;52.568;13.364;2023-02-15T02:47:47;2.10;99.90
5041;DHT22;2539;52.568;13.364;2023-02-15T02:50:22;2.20;99.90
5041;DHT22;2539;52.568;13.364;2023-02-15T02:52:50;2.10;99.90
5041;DHT22;2539;52.568;13.364;2023-02-15T02:55:30;2.00;99.90
5041;DHT22;2539;52.568;13.364;2023-02-15T02:58:05;2.00;99.90
5041;DHT22;2539;52.568;13.364;2023-02-15T03:00:40;1.90;99.90
5041;DHT22;2539;52.568;13.364;2023-02-15T03:03:14;1.90;99.90
5041;DHT22;2539;52.568;13.364;2023-02-15T03:05:44;1.90;99.90
5041;DHT22;2539;52.568;13.364;2023-02-15T03:08:14;1.90;99.90
5041;DHT22;2539;52.568;13.364;2023-02-15T03:10:48;1.80;99.90
5041;DHT22;2539;52.568;13.364;2023-02-15T03:13:17;1.80;99.90
5041;DHT22;2539;52.568;13.364;2023-02-15T03:15:44;1.80;99.90
5041;DHT22;2539;52.568;13.364;2023-02-15T03:18:38;1.80;99.90
5041;DHT22;2539;52.568;13.364;2023-02-15T03:21:07;1.80;99.90
5041;DHT22;2539;52.568;13.364;2023-02-15T03:23:35;1.70;99.90
5041;DHT22;2539;52.568;13.364;2023-02-15T03:26:09;1.80;99.90
5041;DHT22;2539;52.568;13.364;2023-02-15T03:28:42;1.80;99.90
5041;DHT22;2539;52.568;13.364;2023-02-15T03:31:14;1.80;99.90
5041;DHT22;2539;52.568;13.364;2023-02-15T03:33:57;1.80;99.90
5041;DHT22;2539;52.568;13.364;2023-02-15T03:36:46;1.70;99.90
5041;DHT22;2539;52.568;13.364;2023-02-15T03:39:36;1.70;99.90
5041;DHT22;2539;52.568;13.364;2023-02-15T03:42:13;1.60;99.90
5041;DHT22;2539;52.568;13.364;2023-02-15T03:44:48;1.60;99.90
5041;DHT22;2539;52.568;13.364;2023-02-15T03:47:19;1.60;99.90
5041;DHT22;2539;52.568;13.364;2023-02-15T03:50:18;1.50;99.90
5041;DHT22;2539;52.568;13.364;2023-02-15T03:53:06;1.50;99.90
5041;DHT22;2539;52.568;13.364;2023-02-15T03:55:34;1.60;99.90
5041;DHT22;2539;52.568;13.364;2023-02-15T03:58:01;1.60;99.90
5041;DHT22;2539;52.568;13.364;2023-02-15T04:00:55;1.60;99.90
5041;DHT22;2539;52.568;13.364;2023-02-15T04:03:51;1.50;99.90
5041;DHT22;2539;52.568;13.364;2023-02-15T04:06:19;1.50;99.90
5041;DHT22;2539;52.568;13.364;2023-02-15T04:08:46;1.50;99.90
5041;DHT22;2539;52.568;13.364;2023-02-15T04:11:31;1.50;99.90
5041;DHT22;2539;52.568;13.364;2023-02-15T04:13:57;1.50;99.90
5041;DHT22;2539;52.568;13.364;2023-02-15T04:16:24;1.50;99.90
5041;DHT22;2539;52.568;13.364;2023-02-15T04:18:50;1.50;99.90
5041;DHT22;2539;52.568;13.364;2023-02-15T04:21:35;1.40;99.90
5041;DHT22;2539;52.568;13.364;2023-02-15T04:24:21;1.40;99.90
5041;DHT22;2539;52.568;13.364;2023-02-15T04:27:06;1.40;99.90
5041;DHT22;2539;52.568;13.364;2023-02-15T04:29:32;1.50;99.90
5041;DHT22;2539;52.568;13.364;2023-02-15T04:32:00;1.40;99.90
5041;DHT22;2539;52.568;13.364;2023-02-15T04:34:26;1.40;99.90
5041;DHT22;2539;52.568;13.364;2023-02-15T04:36:52;1.30;99.90
5041;DHT22;2539;52.568;13.364;2023-02-15T04:39:19;1.30;99.90
5041;DHT22;2539;52.568;13.364;2023-02-15T04:41:45;1.30;99.90
5041;DHT22;2539;52.568;13.364;2023-02-15T04:44:11;1.30;99.90
5041;DHT22;2539;52.568;13.364;2023-02-15T04:46:38;1.30;99.90
5041;DHT22;2539;52.568;13.364;2023-02-15T04:49:03;1.30;99.90
5041;DHT22;2539;52.568;13.364;2023-02-15T04:51:29;1.30;99.90
5041;DHT22;2539;52.568;13.364;2023-02-15T04:53:54;1.30;99.90
5041;DHT22;2539;52.568;13.364;2023-02-15T04:56:21;1.20;99.90
5041;DHT22;2539;52.568;13.364;2023-02-15T04:58:48;1.20;99.90
5041;DHT22;2539;52.568;13.364;2023-02-15T05:01:14;1.30;99.90
5041;DHT22;2539;52.568;13.364;2023-02-15T05:03:40;1.30;99.90
5041;DHT22;2539;52.568;13.364;2023-02-15T05:06:06;1.30;99.90
5041;DHT22;2539;52.568;13.364;2023-02-15T05:08:31;1.30;99.90
5041;DHT22;2539;52.568;13.364;2023-02-15T05:10:57;1.30;99.90
5041;DHT22;2539;52.568;13.364;2023-02-15T05:13:24;1.20;99.90
5041;DHT22;2539;52.568;13.364;2023-02-15T05:15:52;1.30;99.90
5041;DHT22;2539;52.568;13.364;2023-02-15T05:18:20;1.30;99.90
5041;DHT22;2539;52.568;13.364;2023-02-15T05:20:47;1.20;99.90
5041;DHT22;2539;52.568;13.364;2023-02-15T05:23:14;1.20;99.90
5041;DHT22;2539;52.568;13.364;2023-02-15T05:25:40;1.20;99.90
5041;DHT22;2539;52.568;13.364;2023-02-15T05:28:26;1.20;99.90
5041;DHT22;2539;52.568;13.364;2023-02-15T05:31:04;1.20;99.90
5041;DHT22;2539;52.568;13.364;2023-02-15T05:33:31;1.10;99.90
5041;DHT22;2539;52.568;13.364;2023-02-15T05:35:58;1.10;99.90
5041;DHT22;2539;52.568;13.364;2023-02-15T05:38:24;1.10;99.90
5041;DHT22;2539;52.568;13.364;2023-02-15T05:40:51;1.10;99.90
5041;DHT22;2539;52.568;13.364;2023-02-15T05:43:18;1.10;99.90
5041;DHT22;2539;52.568;13.364;2023-02-15T05:45:50;1.10;99.90
5041;DHT22;2539;52.568;13.364;2023-02-15T05:48:17;1.10;99.90
5041;DHT22;2539;52.568;13.364;2023-02-15T05:50:44;1.10;99.90
5041;DHT22;2539;52.568;13.364;2023-02-15T05:53:11;1.10;99.90
5041;DHT22;2539;52.568;13.364;2023-02-15T05:55:38;1.10;99.90
5041;DHT22;2539;52.568;13.364;2023-02-15T05:58:05;1.10;99.90
5041;DHT22;2539;52.568;13.364;2023-02-15T06:00:32;1.00;99.90
5041;DHT22;2539;52.568;13.364;2023-02-15T06:02:58;1.10;99.90
5041;DHT22;2539;52.568;13.364;2023-02-15T06:05:24;1.00;99.90
5041;DHT22;2539;52.568;13.364;2023-02-15T06:07:50;1.10;99.90
5041;DHT22;2539;52.568;13.364;2023-02-15T06:10:17;1.10;99.90
5041;DHT22;2539;52.568;13.364;2023-02-15T06:12:44;1.00;99.90
5041;DHT22;2539;52.568;13.364;2023-02-15T06:15:10;1.00;99.90
5041;DHT22;2539;52.568;13.364;2023-02-15T06:17:37;1.10;99.90
5041;DHT22;2539;52.568;13.364;2023-02-15T06:20:03;1.10;99.90
5041;DHT22;2539;52.568;13.364;2023-02-15T06:22:30;1.20;99.90
5041;DHT22;2539;52.568;13.364;2023-02-15T06:24:56;1.30;99.90
5041;DHT22;2539;52.568;13.364;2023-02-15T06:27:22;1.30;99.90
5041;DHT22;2539;52.568;13.364;2023-02-15T06:29:48;1.40;99.90
5041;DHT22;2539;52.568;13.364;2023-02-15T06:32:15;1.40;99.90
5041;DHT22;2539;52.568;13.364;2023-02-15T06:34:41;1.50;99.90
5041;DHT22;2539;52.568;13.364;2023-02-15T06:37:07;1.50;99.90
5041;DHT22;2539;52.568;13.364;2023-02-15T06:39:34;1.50;99.90
5041;DHT22;2539;52.568;13.364;2023-02-15T06:42:00;1.60;99.90
5041;DHT22;2539;52.568;13.364;2023-02-15T06:44:26;1.70;99.90
5041;DHT22;2539;52.568;13.364;2023-02-15T06:46:53;1.60;99.90
5041;DHT22;2539;52.568;13.364;2023-02-15T06:49:19;1.70;99.90
5041;DHT22;2539;52.568;13.364;2023-02-15T06:51:45;1.70;99.90
5041;DHT22;2539;52.568;13.364;2023-02-15T06:54:12;1.60;99.90
5041;DHT22;2539;52.568;13.364;2023-02-15T06:56:38;1.80;99.90
5041;DHT22;2539;52.568;13.364;2023-02-15T06:59:05;1.90;99.90
5041;DHT22;2539;52.568;13.364;2023-02-15T07:01:31;1.90;99.90
5041;DHT22;2539;52.568;13.364;2023-02-15T07:03:57;1.90;99.90
5041;DHT22;2539;52.568;13.364;2023-02-15T07:06:23;1.90;99.90
5041;DHT22;2539;52.568;13.364;2023-02-15T07:08:50;2.00;99.90
5041;DHT22;2539;52.568;13.364;2023-02-15T07:11:16;2.00;99.90
5041;DHT22;2539;52.568;13.364;2023-02-15T07:14:01;2.20;99.90
5041;DHT22;2539;52.568;13.364;2023-02-15T07:16:27;2.30;99.90
5041;DHT22;2539;52.568;13.364;2023-02-15T07:18:54;2.20;99.90
5041;DHT22;2539;52.568;13.364;2023-02-15T07:21:20;2.40;99.90
5041;DHT22;2539;52.568;13.364;2023-02-15T07:23:46;2.30;99.90
5041;DHT22;2539;52.568;13.364;2023-02-15T07:26:12;2.30;99.90
5041;DHT22;2539;52.568;13.364;2023-02-15T07:28:38;2.40;99.90
5041;DHT22;2539;52.568;13.364;2023-02-15T07:31:06;2.50;99.90
5041;DHT22;2539;52.568;13.364;2023-02-15T07:33:33;2.50;99.90
5041;DHT22;2539;52.568;13.364;2023-02-15T07:36:04;2.60;99.90
5041;DHT22;2539;52.568;13.364;2023-02-15T07:38:35;2.60;99.90
5041;DHT22;2539;52.568;13.364;2023-02-15T07:41:04;2.60;99.90
5041;DHT22;2539;52.568;13.364;2023-02-15T07:43:33;2.70;99.90
5041;DHT22;2539;52.568;13.364;2023-02-15T07:46:01;2.80;99.90
5041;DHT22;2539;52.568;13.364;2023-02-15T07:48:27;2.80;99.90
5041;DHT22;2539;52.568;13.364;2023-02-15T07:50:53;2.90;99.90
5041;DHT22;2539;52.568;13.364;2023-02-15T07:53:19;2.90;99.90
5041;DHT22;2539;52.568;13.364;2023-02-15T07:55:46;3.00;99.90
5041;DHT22;2539;52.568;13.364;2023-02-15T07:58:12;3.00;99.90
5041;DHT22;2539;52.568;13.364;2023-02-15T08:00:38;3.00;99.90
5041;DHT22;2539;52.568;13.364;2023-02-15T08:03:24;3.00;99.90
5041;DHT22;2539;52.568;13.364;2023-02-15T08:05:56;2.90;99.90
5041;DHT22;2539;52.568;13.364;2023-02-15T08:08:27;2.90;99.90
5041;DHT22;2539;52.568;13.364;2023-02-15T08:11:06;3.10;99.90
5041;DHT22;2539;52.568;13.364;2023-02-15T08:14:12;3.10;99.90
5041;DHT22;2539;52.568;13.364;2023-02-15T08:19:19;3.10;99.90
5041;DHT22;2539;52.568;13.364;2023-02-15T08:21:51;3.10;99.90
5041;DHT22;2539;52.568;13.364;2023-02-15T08:24:19;3.20;99.90
5041;DHT22;2539;52.568;13.364;2023-02-15T08:26:46;3.30;99.90
5041;DHT22;2539;52.568;13.364;2023-02-15T08:29:14;3.30;99.90
5041;DHT22;2539;52.568;13.364;2023-02-15T08:31:41;3.40;99.90
5041;DHT22;2539;52.568;13.364;2023-02-15T08:34:09;3.50;99.90
5041;DHT22;2539;52.568;13.364;2023-02-15T08:36:37;3.60;99.90
5041;DHT22;2539;52.568;13.364;2023-02-15T08:39:05;3.50;99.90
5041;DHT22;2539;52.568;13.364;2023-02-15T08:41:36;3.40;99.90
5041;DHT22;2539;52.568;13.364;2023-02-15T08:44:05;3.40;99.90
5041;DHT22;2539;52.568;13.364;2023-02-15T08:46:34;3.40;99.90
5041;DHT22;2539;52.568;13.364;2023-02-15T08:49:01;3.40;99.90
5041;DHT22;2539;52.568;13.364;2023-02-15T08:51:30;3.50;99.90
5041;DHT22;2539;52.568;13.364;2023-02-15T08:53:58;3.70;99.90
5041;DHT22;2539;52.568;13.364;2023-02-15T08:56:27;3.70;99.90
5041;DHT22;2539;52.568;13.364;2023-02-15T08:58:54;3.70;99.90
5041;DHT22;2539;52.568;13.364;2023-02-15T09:01:24;3.90;99.90
5041;DHT22;2539;52.568;13.364;2023-02-15T09:03:54;3.90;99.90
5041;DHT22;2539;52.568;13.364;2023-02-15T09:06:21;3.90;99.90
5041;DHT22;2539;52.568;13.364;2023-02-15T09:08:49;4.10;99.90
5041;DHT22;2539;52.568;13.364;2023-02-15T09:11:18;4.10;99.90
5041;DHT22;2539;52.568;13.364;2023-02-15T09:13:58;4.30;99.90
5041;DHT22;2539;52.568;13.364;2023-02-15T09:16:28;4.40;99.90
5041;DHT22;2539;52.568;13.364;2023-02-15T09:18:55;4.50;99.90
5041;DHT22;2539;52.568;13.364;2023-02-15T09:21:24;4.50;99.90
5041;DHT22;2539;52.568;13.364;2023-02-15T09:23:56;4.70;99.90
5041;DHT22;2539;52.568;13.364;2023-02-15T09:26:23;4.70;99.90
5041;DHT22;2539;52.568;13.364;2023-02-15T09:28:53;4.80;99.90
5041;DHT22;2539;52.568;13.364;2023-02-15T09:31:22;4.80;99.90
5041;DHT22;2539;52.568;13.364;2023-02-15T09:33:49;4.90;99.90
5041;DHT22;2539;52.568;13.364;2023-02-15T09:36:19;4.90;99.90
5041;DHT22;2539;52.568;13.364;2023-02-15T09:38:46;5.00;99.90
5041;DHT22;2539;52.568;13.364;2023-02-15T09:46:53;4.90;99.90
5041;DHT22;2539;52.568;13.364;2023-02-15T09:52:19;5.10;99.90
5041;DHT22;2539;52.568;13.364;2023-02-15T10:00:31;5.00;99.90
5041;DHT22;2539;52.568;13.364;2023-02-15T10:06:21;4.60;99.90
5041;DHT22;2539;52.568;13.364;2023-02-15T10:14:36;4.60;99.90
5041;DHT22;2539;52.568;13.364;2023-02-15T10:17:32;4.70;99.90
5041;DHT22;2539;52.568;13.364;2023-02-15T10:20:13;4.60;99.90
5041;DHT22;2539;52.568;13.364;2023-02-15T10:23:00;4.60;99.90
5041;DHT22;2539;52.568;13.364;2023-02-15T10:28:09;4.60;99.90
5041;DHT22;2539;52.568;13.364;2023-02-15T10:30:59;4.60;99.90
5041;DHT22;2539;52.568;13.364;2023-02-15T10:33:42;4.60;99.90
5041;DHT22;2539;52.568;13.364;2023-02-15T10:39:30;4.60;99.90
5041;DHT22;2539;52.568;13.364;2023-02-15T10:42:21;4.80;99.90
5041;DHT22;2539;52.568;13.364;2023-02-15T10:50:56;5.00;99.90
5041;DHT22;2539;52.568;13.364;2023-02-15T10:57:02;5.20;99.90
5041;DHT22;2539;52.568;13.364;2023-02-15T11:00:13;5.20;99.90
5041;DHT22;2539;52.568;13.364;2023-02-15T11:02:55;5.40;99.90
5041;DHT22;2539;52.568;13.364;2023-02-15T11:08:04;5.50;99.90
5041;DHT22;2539;52.568;13.364;2023-02-15T11:10:48;5.60;99.90
5041;DHT22;2539;52.568;13.364;2023-02-15T11:13:19;5.70;99.90
5041;DHT22;2539;52.568;13.364;2023-02-15T11:15:51;5.70;99.90
5041;DHT22;2539;52.568;13.364;2023-02-15T11:18:29;5.70;99.90
5041;DHT22;2539;52.568;13.364;2023-02-15T11:21:09;5.80;99.90
5041;DHT22;2539;52.568;13.364;2023-02-15T11:23:42;5.90;99.90
5041;DHT22;2539;52.568;13.364;2023-02-15T11:26:34;6.00;99.90
5041;DHT22;2539;52.568;13.364;2023-02-15T11:29:27;6.00;99.90
5041;DHT22;2539;52.568;13.364;2023-02-15T11:32:02;6.10;99.90
5041;DHT22;2539;52.568;13.364;2023-02-15T11:34:36;6.10;99.90
5041;DHT22;2539;52.568;13.364;2023-02-15T11:37:10;6.20;99.90
5041;DHT22;2539;52.568;13.364;2023-02-15T11:39:37;6.20;99.90
5041;DHT22;2539;52.568;13.364;2023-02-15T11:42:15;6.20;99.90
5041;DHT22;2539;52.568;13.364;2023-02-15T11:45:16;6.30;99.90
5041;DHT22;2539;52.568;13.364;2023-02-15T11:47:43;6.40;99.90
5041;DHT22;2539;52.568;13.364;2023-02-15T11:50:18;6.40;99.90
5041;DHT22;2539;52.568;13.364;2023-02-15T11:53:02;6.50;99.90
5041;DHT22;2539;52.568;13.364;2023-02-15T11:55:30;6.60;99.90
5041;DHT22;2539;52.568;13.364;2023-02-15T11:58:14;6.60;99.90
5041;DHT22;2539;52.568;13.364;2023-02-15T12:00:46;6.70;99.90
5041;DHT22;2539;52.568;13.364;2023-02-15T12:03:39;6.80;99.90
5041;DHT22;2539;52.568;13.364;2023-02-15T12:06:16;6.80;99.90
5041;DHT22;2539;52.568;13.364;2023-02-15T12:08:55;6.80;99.90
5041;DHT22;2539;52.568;13.364;2023-02-15T12:11:49;6.90;99.90
5041;DHT22;2539;52.568;13.364;2023-02-15T12:14:15;6.90;99.90
5041;DHT22;2539;52.568;13.364;2023-02-15T12:16:45;6.90;99.90
5041;DHT22;2539;52.568;13.364;2023-02-15T12:19:31;7.00;99.90
5041;DHT22;2539;52.568;13.364;2023-02-15T12:22:01;7.10;99.90
5041;DHT22;2539;52.568;13.364;2023-02-15T12:24:32;7.20;99.90
5041;DHT22;2539;52.568;13.364;2023-02-15T12:27:14;7.20;99.90
5041;DHT22;2539;52.568;13.364;2023-02-15T12:29:49;7.30;99.90
5041;DHT22;2539;52.568;13.364;2023-02-15T12:32:24;7.30;99.90
5041;DHT22;2539;52.568;13.364;2023-02-15T12:34:55;7.30;99.90
5041;DHT22;2539;52.568;13.364;2023-02-15T12:37:27;7.40;99.90
5041;DHT22;2539;52.568;13.364;2023-02-15T12:39:57;7.40;99.90
5041;DHT22;2539;52.568;13.364;2023-02-15T12:42:25;7.40;99.90
5041;DHT22;2539;52.568;13.364;2023-02-15T12:44:56;7.50;99.90
5041;DHT22;2539;52.568;13.364;2023-02-15T12:47:22;7.60;99.90
5041;DHT22;2539;52.568;13.364;2023-02-15T12:50:10;7.60;99.90
5041;DHT22;2539;52.568;13.364;2023-02-15T12:52:47;7.70;99.90
5041;DHT22;2539;52.568;13.364;2023-02-15T12:55:26;7.80;99.90
5041;DHT22;2539;52.568;13.364;2023-02-15T12:58:18;8.00;99.90
5041;DHT22;2539;52.568;13.364;2023-02-15T13:00:46;8.20;99.90
5041;DHT22;2539;52.568;13.364;2023-02-15T13:03:21;8.40;99.90
5041;DHT22;2539;52.568;13.364;2023-02-15T13:05:55;8.50;99.90
5041;DHT22;2539;52.568;13.364;2023-02-15T13:08:33;8.60;99.90
5041;DHT22;2539;52.568;13.364;2023-02-15T13:11:02;8.60;99.90
5041;DHT22;2539;52.568;13.364;2023-02-15T13:13:31;8.70;99.90
5041;DHT22;2539;52.568;13.364;2023-02-15T13:16:17;8.80;99.90
5041;DHT22;2539;52.568;13.364;2023-02-15T13:18:46;8.80;99.90
5041;DHT22;2539;52.568;13.364;2023-02-15T13:21:19;8.80;99.90
5041;DHT22;2539;52.568;13.364;2023-02-15T13:23:49;8.90;99.90
5041;DHT22;2539;52.568;13.364;2023-02-15T13:26:20;9.00;99.90
5041;DHT22;2539;52.568;13.364;2023-02-15T13:28:50;8.90;99.90
5041;DHT22;2539;52.568;13.364;2023-02-15T13:31:20;9.10;99.90
5041;DHT22;2539;52.568;13.364;2023-02-15T13:33:51;9.10;99.90
5041;DHT22;2539;52.568;13.364;2023-02-15T13:39:09;9.10;99.90
5041;DHT22;2539;52.568;13.364;2023-02-15T13:41:51;9.20;99.90
5041;DHT22;2539;52.568;13.364;2023-02-15T13:44:52;9.20;99.90
5041;DHT22;2539;52.568;13.364;2023-02-15T13:53:27;9.20;99.90
5041;DHT22;2539;52.568;13.364;2023-02-15T13:56:11;9.20;99.90
5041;DHT22;2539;52.568;13.364;2023-02-15T13:59:24;9.20;99.90
5041;DHT22;2539;52.568;13.364;2023-02-15T14:02:06;9.10;99.90
5041;DHT22;2539;52.568;13.364;2023-02-15T14:04:53;9.10;99.90
5041;DHT22;2539;52.568;13.364;2023-02-15T14:10:38;9.00;99.90
5041;DHT22;2539;52.568;13.364;2023-02-15T14:16:09;8.80;99.90
5041;DHT22;2539;52.568;13.364;2023-02-15T14:18:45;8.80;99.90
5041;DHT22;2539;52.568;13.364;2023-02-15T14:21:21;8.80;99.90
5041;DHT22;2539;52.568;13.364;2023-02-15T14:24:08;8.80;99.90
5041;DHT22;2539;52.568;13.364;2023-02-15T14:29:45;8.90;99.90
5041;DHT22;2539;52.568;13.364;2023-02-15T14:32:27;8.90;99.90
5041;DHT22;2539;52.568;13.364;2023-02-15T14:35:00;8.90;99.90
5041;DHT22;2539;52.568;13.364;2023-02-15T14:37:44;9.00;99.90
5041;DHT22;2539;52.568;13.364;2023-02-15T14:40:42;9.00;99.90
5041;DHT22;2539;52.568;13.364;2023-02-15T14:43:55;9.00;99.90
5041;DHT22;2539;52.568;13.364;2023-02-15T14:46:38;8.90;99.90
5041;DHT22;2539;52.568;13.364;2023-02-15T14:49:20;8.90;99.90
5041;DHT22;2539;52.568;13.364;2023-02-15T14:59:50;8.80;99.90
5041;DHT22;2539;52.568;13.364;2023-02-15T15:02:27;8.70;99.90
5041;DHT22;2539;52.568;13.364;2023-02-15T15:05:06;8.70;99.90
5041;DHT22;2539;52.568;13.364;2023-02-15T15:07:44;8.70;99.90
5041;DHT22;2539;52.568;13.364;2023-02-15T15:12:48;8.60;99.90
5041;DHT22;2539;52.568;13.364;2023-02-15T15:17:57;8.50;99.90
5041;DHT22;2539;52.568;13.364;2023-02-15T15:25:53;8.40;99.90
5041;DHT22;2539;52.568;13.364;2023-02-15T15:31:30;8.30;99.90
5041;DHT22;2539;52.568;13.364;2023-02-15T15:37:23;8.30;99.90
5041;DHT22;2539;52.568;13.364;2023-02-15T15:40:19;8.10;99.90
5041;DHT22;2539;52.568;13.364;2023-02-15T15:42:50;8.10;99.90
5041;DHT22;2539;52.568;13.364;2023-02-15T15:48:23;7.90;99.90
5041;DHT22;2539;52.568;13.364;2023-02-15T15:50:53;7.90;99.90
5041;DHT22;2539;52.568;13.364;2023-02-15T15:53:25;7.70;99.90
5041;DHT22;2539;52.568;13.364;2023-02-15T15:55:59;7.70;99.90
5041;DHT22;2539;52.568;13.364;2023-02-15T15:58:26;7.50;99.90
5041;DHT22;2539;52.568;13.364;2023-02-15T16:00:58;7.50;99.90
5041;DHT22;2539;52.568;13.364;2023-02-15T16:03:27;7.40;99.90
5041;DHT22;2539;52.568;13.364;2023-02-15T16:05:55;7.40;99.90
5041;DHT22;2539;52.568;13.364;2023-02-15T16:08:38;7.40;99.90
5041;DHT22;2539;52.568;13.364;2023-02-15T16:11:14;7.40;99.90
5041;DHT22;2539;52.568;13.364;2023-02-15T16:13:42;7.40;99.90
5041;DHT22;2539;52.568;13.364;2023-02-15T16:16:12;7.40;99.90
5041;DHT22;2539;52.568;13.364;2023-02-15T16:18:46;7.30;99.90
5041;DHT22;2539;52.568;13.364;2023-02-15T16:21:20;7.10;99.90
5041;DHT22;2539;52.568;13.364;2023-02-15T16:24:14;7.10;99.90
5041;DHT22;2539;52.568;13.364;2023-02-15T16:27:05;7.00;99.90
5041;DHT22;2539;52.568;13.364;2023-02-15T16:29:35;6.90;99.90
5041;DHT22;2539;52.568;13.364;2023-02-15T16:32:04;6.80;99.90
5041;DHT22;2539;52.568;13.364;2023-02-15T16:34:31;6.80;99.90
5041;DHT22;2539;52.568;13.364;2023-02-15T16:37:16;6.80;99.90
5041;DHT22;2539;52.568;13.364;2023-02-15T16:39:43;6.70;99.90
5041;DHT22;2539;52.568;13.364;2023-02-15T16:42:11;6.60;99.90
5041;DHT22;2539;52.568;13.364;2023-02-15T16:44:40;6.60;99.90
5041;DHT22;2539;52.568;13.364;2023-02-15T16:47:17;6.40;99.90
5041;DHT22;2539;52.568;13.364;2023-02-15T16:49:47;6.20;99.90
5041;DHT22;2539;52.568;13.364;2023-02-15T16:52:20;6.00;99.90
5041;DHT22;2539;52.568;13.364;2023-02-15T16:54:56;5.90;99.90
5041;DHT22;2539;52.568;13.364;2023-02-15T16:57:27;5.90;99.90
5041;DHT22;2539;52.568;13.364;2023-02-15T16:59:59;5.80;99.90
5041;DHT22;2539;52.568;13.364;2023-02-15T17:02:30;5.70;99.90
5041;DHT22;2539;52.568;13.364;2023-02-15T17:07:41;5.60;99.90
5041;DHT22;2539;52.568;13.364;2023-02-15T17:10:29;5.60;99.90
5041;DHT22;2539;52.568;13.364;2023-02-15T17:13:01;5.60;99.90
5041;DHT22;2539;52.568;13.364;2023-02-15T17:15:34;5.50;99.90
5041;DHT22;2539;52.568;13.364;2023-02-15T17:18:08;5.70;99.90
5041;DHT22;2539;52.568;13.364;2023-02-15T17:20:38;5.60;99.90
5041;DHT22;2539;52.568;13.364;2023-02-15T17:23:04;5.50;99.90
5041;DHT22;2539;52.568;13.364;2023-02-15T17:25:37;5.40;99.90
5041;DHT22;2539;52.568;13.364;2023-02-15T17:28:05;5.40;99.90
5041;DHT22;2539;52.568;13.364;2023-02-15T17:30:40;5.40;99.90
5041;DHT22;2539;52.568;13.364;2023-02-15T17:33:35;5.40;99.90
5041;DHT22;2539;52.568;13.364;2023-02-15T17:36:17;5.30;99.90
5041;DHT22;2539;52.568;13.364;2023-02-15T17:41:29;5.20;99.90
5041;DHT22;2539;52.568;13.364;2023-02-15T17:43:56;5.20;99.90
5041;DHT22;2539;52.568;13.364;2023-02-15T17:46:23;5.20;99.90
5041;DHT22;2539;52.568;13.364;2023-02-15T17:48:52;5.10;99.90
5041;DHT22;2539;52.568;13.364;2023-02-15T17:51:21;5.00;99.90
5041;DHT22;2539;52.568;13.364;2023-02-15T17:53:47;5.00;99.90
5041;DHT22;2539;52.568;13.364;2023-02-15T17:56:33;5.10;99.90
5041;DHT22;2539;52.568;13.364;2023-02-15T17:59:01;5.00;99.90
5041;DHT22;2539;52.568;13.364;2023-02-15T18:01:27;4.90;99.90
5041;DHT22;2539;52.568;13.364;2023-02-15T18:04:13;5.70;99.90
5041;DHT22;2539;52.568;13.364;2023-02-15T18:06:59;5.10;99.90
5041;DHT22;2539;52.568;13.364;2023-02-15T18:09:44;5.00;99.90
5041;DHT22;2539;52.568;13.364;2023-02-15T18:12:34;5.00;99.90
5041;DHT22;2539;52.568;13.364;2023-02-15T18:15:03;4.90;99.90
5041;DHT22;2539;52.568;13.364;2023-02-15T18:17:35;4.90;99.90
5041;DHT22;2539;52.568;13.364;2023-02-15T18:20:09;4.80;99.90
5041;DHT22;2539;52.568;13.364;2023-02-15T18:22:36;4.70;99.90
5041;DHT22;2539;52.568;13.364;2023-02-15T18:25:02;4.70;99.90